createdAt,value
2019-03-10T00:05:22.867Z,9.75
2019-03-10T00:15:24.865Z,8.90
2019-03-10T00:25:26.818Z,9.53
2019-03-10T00:35:28.820Z,9.13
2019-03-10T00:46:30.164Z,9.58
2019-03-10T00:56:32.451Z,9.63
2019-03-10T01:06:34.405Z,8.53
2019-03-10T01:16:36.680Z,7.92
2019-03-10T01:26:38.975Z,9.03
2019-03-10T01:36:41.214Z,8.07
2019-03-10T01:46:43.967Z,7.93
2019-03-10T01:56:46.271Z,7.70
2019-03-10T02:06:48.556Z,8.23
2019-03-10T02:16:50.554Z,9.67
2019-03-10T02:26:52.950Z,7.95
2019-03-10T02:36:55.198Z,7.90
2019-03-10T02:46:57.328Z,9.00
2019-03-10T02:57:00.261Z,9.18
2019-03-10T03:07:02.434Z,9.33
2019-03-10T03:17:04.412Z,9.38
2019-03-10T03:27:06.693Z,9.05
2019-03-10T03:37:12.502Z,8.00
2019-03-10T03:47:14.769Z,9.10
2019-03-10T03:57:17.246Z,8.43
2019-03-10T04:07:19.432Z,8.83
2019-03-10T04:17:21.419Z,6.77
2019-03-10T04:27:23.397Z,5.65
2019-03-10T04:37:44.878Z,5.75
2019-03-10T04:47:47.597Z,4.95
2019-03-10T04:57:49.563Z,5.80
2019-03-10T05:07:51.791Z,4.85
2019-03-10T05:17:53.751Z,4.85
2019-03-10T05:27:55.735Z,5.05
2019-03-10T05:37:57.667Z,6.00
2019-03-10T05:48:00.390Z,4.70
2019-03-10T05:58:02.814Z,5.17
2019-03-10T06:08:05.278Z,4.17
2019-03-10T06:18:13.575Z,3.93
2019-03-10T06:28:11.383Z,3.62
2019-03-10T06:38:14.171Z,4.23
2019-03-10T06:48:17.465Z,4.62
2019-03-10T06:58:19.736Z,3.15
2019-03-10T07:08:22.036Z,4.07
2019-03-10T07:18:24.390Z,3.50
2019-03-10T07:28:26.536Z,3.90
2019-03-10T07:38:29.161Z,3.00
2019-03-10T07:48:31.767Z,3.10
2019-03-10T07:58:33.749Z,2.67
2019-03-10T08:08:36.190Z,2.40
2019-03-10T08:18:39.142Z,2.40
2019-03-10T08:28:41.099Z,5.00
2019-03-10T08:38:43.067Z,3.45
2019-03-10T08:48:45.668Z,4.45
2019-03-10T08:58:47.648Z,4.20
2019-03-10T09:08:49.924Z,2.90
2019-03-10T09:18:52.781Z,3.50
2019-03-10T09:28:55.206Z,2.20
2019-03-10T09:38:57.476Z,1.43
2019-03-10T09:49:00.106Z,1.93
2019-03-10T09:59:03.020Z,0.80
2019-03-10T10:09:05.924Z,1.50
2019-03-10T10:19:07.903Z,1.55
2019-03-10T10:29:10.143Z,2.65
2019-03-10T10:39:12.108Z,3.53
2019-03-10T10:49:14.104Z,4.65
2019-03-10T10:59:16.359Z,3.60
2019-03-10T11:09:19.106Z,3.47
2019-03-10T11:19:21.830Z,3.05
2019-03-10T11:29:24.059Z,3.25
2019-03-10T11:39:25.981Z,4.40
2019-03-10T11:49:28.301Z,3.60
2019-03-10T11:59:30.295Z,2.73
2019-03-10T12:09:32.595Z,4.43
2019-03-10T12:19:34.813Z,3.90
2019-03-10T12:29:37.050Z,3.97
2019-03-10T12:39:39.290Z,4.30
2019-03-10T12:49:41.239Z,4.10
2019-03-10T12:59:43.615Z,4.70
2019-03-10T13:09:46.116Z,4.43
2019-03-10T13:19:48.159Z,4.22
2019-03-10T13:29:50.143Z,3.20
2019-03-10T13:39:53.020Z,1.12
2019-03-10T13:49:55.316Z,0.95
2019-03-10T13:59:57.667Z,1.40
2019-03-10T14:09:59.847Z,1.00
2019-03-10T14:20:01.843Z,1.07
2019-03-10T14:30:04.613Z,1.63
2019-03-10T14:40:08.815Z,1.40
2019-03-10T14:50:12.774Z,1.40
2019-03-10T15:00:17.695Z,1.85
2019-03-10T15:10:19.880Z,1.30
2019-03-10T15:20:22.078Z,1.00
2019-03-10T15:30:24.426Z,1.20
2019-03-10T15:40:26.842Z,1.47
2019-03-10T15:50:29.904Z,1.30
2019-03-10T16:10:34.423Z,1.10
2019-03-10T16:20:37.457Z,0.95
2019-03-10T16:30:39.727Z,0.75
2019-03-10T16:40:42.912Z,1.53
2019-03-10T17:00:47.219Z,0.60
2019-03-10T17:10:49.635Z,0.27
2019-03-10T17:20:51.918Z,0.40
2019-03-10T17:30:53.895Z,0.80
2019-03-10T17:40:55.839Z,0.82
2019-03-10T17:50:58.851Z,1.12
2019-03-10T18:01:00.842Z,1.20
2019-03-10T18:11:03.411Z,1.47
2019-03-10T18:21:05.594Z,1.03
2019-03-10T18:31:07.932Z,1.12
2019-03-10T18:41:11.738Z,2.20
2019-03-10T18:51:14.518Z,1.02
2019-03-10T19:01:16.517Z,1.10
2019-03-10T19:11:18.835Z,0.90
2019-03-10T19:21:21.372Z,1.20
2019-03-10T19:31:23.518Z,1.50
2019-03-10T19:41:25.567Z,1.57
2019-03-10T19:51:27.606Z,1.52
2019-03-10T20:01:29.991Z,1.15
2019-03-10T20:11:32.340Z,0.97
2019-03-10T20:21:34.615Z,0.90
2019-03-10T20:31:37.975Z,1.30
2019-03-10T20:41:40.238Z,1.50
2019-03-10T20:51:42.363Z,1.10
2019-03-10T21:01:44.408Z,1.07
2019-03-10T21:11:46.562Z,1.70
2019-03-10T21:21:49.067Z,1.50
2019-03-10T21:31:51.150Z,1.60
2019-03-10T21:41:53.259Z,1.60
2019-03-10T21:51:55.518Z,1.30
2019-03-10T22:01:57.824Z,2.00
2019-03-10T22:12:00.079Z,2.23
2019-03-10T22:22:02.043Z,1.80
2019-03-10T22:32:04.402Z,2.22
2019-03-10T22:42:07.016Z,2.90
2019-03-10T22:52:10.893Z,2.87
2019-03-10T23:02:12.791Z,2.40
2019-03-10T23:12:14.737Z,2.40
2019-03-10T23:22:17.250Z,4.40
2019-03-10T23:32:19.515Z,2.10
2019-03-10T23:42:23.301Z,2.87
2019-03-10T23:52:25.508Z,2.67
